sensor_id;sensor_type;location;lat;lon;timestamp;P1;durP1;ratioP1;P2;durP2;ratioP2
37945;SDS011;23769;52.478;13.448;2023-02-24T00:02:31;55.22;;;20.50;;
37945;SDS011;23769;52.478;13.448;2023-02-24T00:04:58;52.53;;;20.63;;
37945;SDS011;23769;52.478;13.448;2023-02-24T00:07:27;53.88;;;20.77;;
37945;SDS011;23769;52.478;13.448;2023-02-24T00:09:54;49.60;;;20.00;;
37945;SDS011;23769;52.478;13.448;2023-02-24T00:12:21;59.45;;;21.40;;
37945;SDS011;23769;52.478;13.448;2023-02-24T00:14:50;54.15;;;20.50;;
37945;SDS011;23769;52.478;13.448;2023-02-24T00:17:17;51.40;;;20.15;;
37945;SDS011;23769;52.478;13.448;2023-02-24T00:19:44;50.17;;;19.67;;
37945;SDS011;23769;52.478;13.448;2023-02-24T00:22:11;54.85;;;20.95;;
37945;SDS011;23769;52.478;13.448;2023-02-24T00:24:40;56.30;;;19.50;;
37945;SDS011;23769;52.478;13.448;2023-02-24T00:27:07;48.83;;;19.17;;
37945;SDS011;23769;52.478;13.448;2023-02-24T00:29:36;48.35;;;19.20;;
37945;SDS011;23769;52.478;13.448;2023-02-24T00:32:04;45.38;;;17.35;;
37945;SDS011;23769;52.478;13.448;2023-02-24T00:34:36;49.33;;;17.13;;
37945;SDS011;23769;52.478;13.448;2023-02-24T00:37:04;44.88;;;17.27;;
37945;SDS011;23769;52.478;13.448;2023-02-24T00:39:32;43.97;;;16.92;;
37945;SDS011;23769;52.478;13.448;2023-02-24T00:42:02;43.03;;;16.35;;
37945;SDS011;23769;52.478;13.448;2023-02-24T00:44:30;47.22;;;17.35;;
37945;SDS011;23769;52.478;13.448;2023-02-24T00:46:58;40.72;;;14.98;;
37945;SDS011;23769;52.478;13.448;2023-02-24T00:49:26;40.83;;;17.60;;
37945;SDS011;23769;52.478;13.448;2023-02-24T00:51:53;46.53;;;16.23;;
37945;SDS011;23769;52.478;13.448;2023-02-24T00:54:21;43.22;;;16.00;;
37945;SDS011;23769;52.478;13.448;2023-02-24T00:56:51;40.20;;;14.95;;
37945;SDS011;23769;52.478;13.448;2023-02-24T00:59:20;39.78;;;13.43;;
37945;SDS011;23769;52.478;13.448;2023-02-24T01:01:47;35.45;;;11.82;;
37945;SDS011;23769;52.478;13.448;2023-02-24T01:04:15;28.65;;;10.80;;
37945;SDS011;23769;52.478;13.448;2023-02-24T01:06:43;28.88;;;10.07;;
37945;SDS011;23769;52.478;13.448;2023-02-24T01:09:11;23.35;;;9.27;;
37945;SDS011;23769;52.478;13.448;2023-02-24T01:11:39;23.30;;;8.73;;
37945;SDS011;23769;52.478;13.448;2023-02-24T01:14:27;24.80;;;9.40;;
37945;SDS011;23769;52.478;13.448;2023-02-24T01:16:54;21.83;;;8.88;;
37945;SDS011;23769;52.478;13.448;2023-02-24T01:19:23;22.10;;;8.05;;
37945;SDS011;23769;52.478;13.448;2023-02-24T01:21:55;21.88;;;8.00;;
37945;SDS011;23769;52.478;13.448;2023-02-24T01:24:23;23.58;;;7.53;;
37945;SDS011;23769;52.478;13.448;2023-02-24T01:26:50;21.15;;;7.10;;
37945;SDS011;23769;52.478;13.448;2023-02-24T01:29:18;23.80;;;8.25;;
37945;SDS011;23769;52.478;13.448;2023-02-24T01:31:48;18.88;;;6.13;;
37945;SDS011;23769;52.478;13.448;2023-02-24T01:34:15;18.33;;;6.68;;
37945;SDS011;23769;52.478;13.448;2023-02-24T01:36:43;20.17;;;5.95;;
37945;SDS011;23769;52.478;13.448;2023-02-24T01:39:11;17.38;;;5.30;;
37945;SDS011;23769;52.478;13.448;2023-02-24T01:41:39;24.02;;;5.50;;
37945;SDS011;23769;52.478;13.448;2023-02-24T01:46:51;19.15;;;4.63;;
37945;SDS011;23769;52.478;13.448;2023-02-24T01:49:20;24.02;;;4.45;;
37945;SDS011;23769;52.478;13.448;2023-02-24T01:51:49;21.48;;;4.45;;
37945;SDS011;23769;52.478;13.448;2023-02-24T01:54:18;21.10;;;4.97;;
37945;SDS011;23769;52.478;13.448;2023-02-24T01:56:46;17.23;;;4.15;;
37945;SDS011;23769;52.478;13.448;2023-02-24T01:59:15;23.52;;;5.90;;
37945;SDS011;23769;52.478;13.448;2023-02-24T02:01:43;23.27;;;5.13;;
37945;SDS011;23769;52.478;13.448;2023-02-24T02:04:15;30.00;;;5.10;;
37945;SDS011;23769;52.478;13.448;2023-02-24T02:06:44;16.35;;;4.43;;
37945;SDS011;23769;52.478;13.448;2023-02-24T02:09:12;19.23;;;4.68;;
37945;SDS011;23769;52.478;13.448;2023-02-24T02:11:40;21.70;;;4.43;;
37945;SDS011;23769;52.478;13.448;2023-02-24T02:14:13;23.17;;;4.90;;
37945;SDS011;23769;52.478;13.448;2023-02-24T02:16:51;23.73;;;4.15;;
37945;SDS011;23769;52.478;13.448;2023-02-24T02:22:21;19.67;;;3.65;;
37945;SDS011;23769;52.478;13.448;2023-02-24T02:24:52;22.85;;;4.03;;
37945;SDS011;23769;52.478;13.448;2023-02-24T02:30:26;16.02;;;2.80;;
37945;SDS011;23769;52.478;13.448;2023-02-24T02:33:15;14.40;;;3.63;;
37945;SDS011;23769;52.478;13.448;2023-02-24T02:35:53;18.52;;;3.30;;
37945;SDS011;23769;52.478;13.448;2023-02-24T02:38:25;12.60;;;2.95;;
37945;SDS011;23769;52.478;13.448;2023-02-24T02:40:58;18.75;;;3.40;;
37945;SDS011;23769;52.478;13.448;2023-02-24T02:43:27;17.10;;;3.85;;
37945;SDS011;23769;52.478;13.448;2023-02-24T02:45:56;22.77;;;3.85;;
37945;SDS011;23769;52.478;13.448;2023-02-24T02:48:29;12.32;;;3.00;;
37945;SDS011;23769;52.478;13.448;2023-02-24T02:51:01;16.25;;;2.83;;
37945;SDS011;23769;52.478;13.448;2023-02-24T02:53:32;11.77;;;2.57;;
37945;SDS011;23769;52.478;13.448;2023-02-24T02:56:02;13.82;;;2.45;;
37945;SDS011;23769;52.478;13.448;2023-02-24T02:58:33;16.40;;;2.47;;
37945;SDS011;23769;52.478;13.448;2023-02-24T03:01:01;16.08;;;2.28;;
37945;SDS011;23769;52.478;13.448;2023-02-24T03:03:31;12.65;;;1.80;;
37945;SDS011;23769;52.478;13.448;2023-02-24T03:06:01;11.85;;;2.42;;
37945;SDS011;23769;52.478;13.448;2023-02-24T03:08:30;12.23;;;2.15;;
37945;SDS011;23769;52.478;13.448;2023-02-24T03:10:59;14.52;;;2.53;;
37945;SDS011;23769;52.478;13.448;2023-02-24T03:13:27;10.18;;;1.95;;
37945;SDS011;23769;52.478;13.448;2023-02-24T03:15:58;16.35;;;2.85;;
37945;SDS011;23769;52.478;13.448;2023-02-24T03:18:26;16.23;;;3.28;;
37945;SDS011;23769;52.478;13.448;2023-02-24T03:20:56;14.27;;;2.15;;
37945;SDS011;23769;52.478;13.448;2023-02-24T03:23:27;15.18;;;2.58;;
37945;SDS011;23769;52.478;13.448;2023-02-24T03:25:57;11.90;;;2.65;;
37945;SDS011;23769;52.478;13.448;2023-02-24T03:28:28;11.95;;;2.45;;
37945;SDS011;23769;52.478;13.448;2023-02-24T03:30:58;15.48;;;2.72;;
37945;SDS011;23769;52.478;13.448;2023-02-24T03:33:30;12.02;;;2.72;;
37945;SDS011;23769;52.478;13.448;2023-02-24T03:35:59;19.13;;;2.63;;
37945;SDS011;23769;52.478;13.448;2023-02-24T03:38:28;11.63;;;2.38;;
37945;SDS011;23769;52.478;13.448;2023-02-24T03:40:56;11.25;;;2.03;;
37945;SDS011;23769;52.478;13.448;2023-02-24T03:43:25;14.43;;;2.53;;
37945;SDS011;23769;52.478;13.448;2023-02-24T03:45:53;12.50;;;1.80;;
37945;SDS011;23769;52.478;13.448;2023-02-24T03:48:21;9.18;;;2.58;;
37945;SDS011;23769;52.478;13.448;2023-02-24T03:50:49;20.83;;;3.70;;
37945;SDS011;23769;52.478;13.448;2023-02-24T03:53:26;10.32;;;2.50;;
37945;SDS011;23769;52.478;13.448;2023-02-24T03:55:59;17.30;;;3.40;;
37945;SDS011;23769;52.478;13.448;2023-02-24T04:00:57;12.57;;;2.83;;
37945;SDS011;23769;52.478;13.448;2023-02-24T04:03:30;15.13;;;2.65;;
37945;SDS011;23769;52.478;13.448;2023-02-24T04:06:05;16.35;;;3.72;;
37945;SDS011;23769;52.478;13.448;2023-02-24T04:11:02;15.13;;;2.88;;
37945;SDS011;23769;52.478;13.448;2023-02-24T04:13:34;13.20;;;3.22;;
37945;SDS011;23769;52.478;13.448;2023-02-24T04:16:05;23.02;;;6.88;;
37945;SDS011;23769;52.478;13.448;2023-02-24T04:18:35;27.13;;;11.23;;
37945;SDS011;23769;52.478;13.448;2023-02-24T04:21:03;13.13;;;3.20;;
37945;SDS011;23769;52.478;13.448;2023-02-24T04:23:31;15.15;;;2.47;;
37945;SDS011;23769;52.478;13.448;2023-02-24T04:26:04;17.30;;;3.30;;
37945;SDS011;23769;52.478;13.448;2023-02-24T04:28:32;14.73;;;2.90;;
37945;SDS011;23769;52.478;13.448;2023-02-24T04:31:00;15.93;;;2.90;;
37945;SDS011;23769;52.478;13.448;2023-02-24T04:33:30;14.75;;;2.97;;
37945;SDS011;23769;52.478;13.448;2023-02-24T04:35:57;17.30;;;3.00;;
37945;SDS011;23769;52.478;13.448;2023-02-24T04:38:25;15.82;;;3.13;;
37945;SDS011;23769;52.478;13.448;2023-02-24T04:40:52;9.23;;;2.88;;
37945;SDS011;23769;52.478;13.448;2023-02-24T04:43:20;10.70;;;3.05;;
37945;SDS011;23769;52.478;13.448;2023-02-24T04:45:48;13.10;;;3.13;;
37945;SDS011;23769;52.478;13.448;2023-02-24T04:48:15;11.07;;;3.33;;
37945;SDS011;23769;52.478;13.448;2023-02-24T04:50:44;15.20;;;4.07;;
37945;SDS011;23769;52.478;13.448;2023-02-24T04:53:13;16.77;;;3.10;;
37945;SDS011;23769;52.478;13.448;2023-02-24T04:55:41;17.02;;;3.28;;
37945;SDS011;23769;52.478;13.448;2023-02-24T04:58:13;13.50;;;2.60;;
37945;SDS011;23769;52.478;13.448;2023-02-24T05:00:45;10.23;;;2.13;;
37945;SDS011;23769;52.478;13.448;2023-02-24T05:03:13;9.35;;;2.30;;
37945;SDS011;23769;52.478;13.448;2023-02-24T05:05:46;10.05;;;2.50;;
37945;SDS011;23769;52.478;13.448;2023-02-24T05:08:16;16.48;;;3.42;;
37945;SDS011;23769;52.478;13.448;2023-02-24T05:10:44;10.25;;;2.17;;
37945;SDS011;23769;52.478;13.448;2023-02-24T05:13:12;12.77;;;3.35;;
37945;SDS011;23769;52.478;13.448;2023-02-24T05:15:40;9.88;;;2.83;;
37945;SDS011;23769;52.478;13.448;2023-02-24T05:18:11;13.00;;;2.90;;
37945;SDS011;23769;52.478;13.448;2023-02-24T05:20:41;14.35;;;2.42;;
37945;SDS011;23769;52.478;13.448;2023-02-24T05:23:26;13.15;;;2.38;;
37945;SDS011;23769;52.478;13.448;2023-02-24T05:25:55;10.25;;;3.03;;
37945;SDS011;23769;52.478;13.448;2023-02-24T05:28:23;9.10;;;2.92;;
37945;SDS011;23769;52.478;13.448;2023-02-24T05:30:50;17.80;;;2.65;;
37945;SDS011;23769;52.478;13.448;2023-02-24T05:33:20;15.88;;;2.65;;
37945;SDS011;23769;52.478;13.448;2023-02-24T05:35:47;6.53;;;2.00;;
37945;SDS011;23769;52.478;13.448;2023-02-24T05:38:15;10.35;;;2.33;;
37945;SDS011;23769;52.478;13.448;2023-02-24T05:40:43;10.45;;;2.55;;
37945;SDS011;23769;52.478;13.448;2023-02-24T05:43:12;8.68;;;2.05;;
37945;SDS011;23769;52.478;13.448;2023-02-24T05:45:42;8.50;;;2.03;;
37945;SDS011;23769;52.478;13.448;2023-02-24T05:48:10;10.13;;;2.42;;
37945;SDS011;23769;52.478;13.448;2023-02-24T05:50:40;9.30;;;2.05;;
37945;SDS011;23769;52.478;13.448;2023-02-24T05:53:10;10.95;;;2.10;;
37945;SDS011;23769;52.478;13.448;2023-02-24T05:55:37;8.02;;;1.80;;
37945;SDS011;23769;52.478;13.448;2023-02-24T05:58:04;8.77;;;2.00;;
37945;SDS011;23769;52.478;13.448;2023-02-24T06:00:32;12.30;;;1.92;;
37945;SDS011;23769;52.478;13.448;2023-02-24T06:03:03;7.80;;;1.80;;
37945;SDS011;23769;52.478;13.448;2023-02-24T06:05:34;11.82;;;2.03;;
37945;SDS011;23769;52.478;13.448;2023-02-24T06:08:05;12.80;;;2.38;;
37945;SDS011;23769;52.478;13.448;2023-02-24T06:10:36;9.98;;;3.10;;
37945;SDS011;23769;52.478;13.448;2023-02-24T06:13:05;15.63;;;2.42;;
37945;SDS011;23769;52.478;13.448;2023-02-24T06:15:34;8.63;;;1.83;;
37945;SDS011;23769;52.478;13.448;2023-02-24T06:18:01;9.30;;;1.45;;
37945;SDS011;23769;52.478;13.448;2023-02-24T06:20:30;12.50;;;2.30;;
37945;SDS011;23769;52.478;13.448;2023-02-24T06:22:57;10.40;;;1.77;;
37945;SDS011;23769;52.478;13.448;2023-02-24T06:25:29;7.68;;;1.77;;
37945;SDS011;23769;52.478;13.448;2023-02-24T06:27:57;8.32;;;1.98;;
37945;SDS011;23769;52.478;13.448;2023-02-24T06:30:26;8.38;;;1.42;;
37945;SDS011;23769;52.478;13.448;2023-02-24T06:32:53;8.73;;;1.73;;
37945;SDS011;23769;52.478;13.448;2023-02-24T06:35:21;9.52;;;1.70;;
37945;SDS011;23769;52.478;13.448;2023-02-24T06:37:48;6.93;;;1.50;;
37945;SDS011;23769;52.478;13.448;2023-02-24T06:40:15;11.10;;;2.45;;
37945;SDS011;23769;52.478;13.448;2023-02-24T06:42:45;12.50;;;1.80;;
37945;SDS011;23769;52.478;13.448;2023-02-24T06:45:13;11.48;;;2.33;;
37945;SDS011;23769;52.478;13.448;2023-02-24T06:47:40;15.18;;;4.22;;
37945;SDS011;23769;52.478;13.448;2023-02-24T06:50:08;21.00;;;6.35;;
37945;SDS011;23769;52.478;13.448;2023-02-24T06:52:36;12.65;;;3.85;;
37945;SDS011;23769;52.478;13.448;2023-02-24T06:55:05;8.63;;;2.35;;
37945;SDS011;23769;52.478;13.448;2023-02-24T06:57:50;13.23;;;2.22;;
37945;SDS011;23769;52.478;13.448;2023-02-24T07:00:21;12.23;;;3.73;;
37945;SDS011;23769;52.478;13.448;2023-02-24T07:02:51;13.15;;;3.03;;
37945;SDS011;23769;52.478;13.448;2023-02-24T07:05:21;13.65;;;4.90;;
37945;SDS011;23769;52.478;13.448;2023-02-24T07:07:48;9.32;;;1.98;;
37945;SDS011;23769;52.478;13.448;2023-02-24T07:10:16;9.98;;;1.85;;
37945;SDS011;23769;52.478;13.448;2023-02-24T07:12:43;7.63;;;1.48;;
37945;SDS011;23769;52.478;13.448;2023-02-24T07:15:12;11.80;;;1.80;;
37945;SDS011;23769;52.478;13.448;2023-02-24T07:17:41;17.92;;;4.53;;
37945;SDS011;23769;52.478;13.448;2023-02-24T07:20:09;7.40;;;1.63;;
37945;SDS011;23769;52.478;13.448;2023-02-24T07:22:49;9.63;;;1.75;;
37945;SDS011;23769;52.478;13.448;2023-02-24T07:25:16;10.80;;;2.65;;
37945;SDS011;23769;52.478;13.448;2023-02-24T07:27:57;9.70;;;2.17;;
37945;SDS011;23769;52.478;13.448;2023-02-24T07:30:27;8.27;;;1.85;;
37945;SDS011;23769;52.478;13.448;2023-02-24T07:32:55;9.73;;;2.20;;
37945;SDS011;23769;52.478;13.448;2023-02-24T07:35:22;7.07;;;1.85;;
37945;SDS011;23769;52.478;13.448;2023-02-24T07:37:49;11.60;;;2.10;;
37945;SDS011;23769;52.478;13.448;2023-02-24T07:40:17;11.07;;;1.95;;
37945;SDS011;23769;52.478;13.448;2023-02-24T07:42:46;6.50;;;1.77;;
37945;SDS011;23769;52.478;13.448;2023-02-24T07:45:13;9.95;;;2.72;;
37945;SDS011;23769;52.478;13.448;2023-02-24T07:47:42;13.27;;;2.60;;
37945;SDS011;23769;52.478;13.448;2023-02-24T07:50:11;14.68;;;6.68;;
37945;SDS011;23769;52.478;13.448;2023-02-24T07:52:42;11.38;;;3.35;;
37945;SDS011;23769;52.478;13.448;2023-02-24T07:55:15;8.18;;;2.13;;
37945;SDS011;23769;52.478;13.448;2023-02-24T07:57:43;9.38;;;1.90;;
37945;SDS011;23769;52.478;13.448;2023-02-24T08:00:13;5.07;;;1.60;;
37945;SDS011;23769;52.478;13.448;2023-02-24T08:02:45;7.32;;;1.80;;
37945;SDS011;23769;52.478;13.448;2023-02-24T08:05:14;8.88;;;1.75;;
37945;SDS011;23769;52.478;13.448;2023-02-24T08:07:42;6.07;;;1.98;;
37945;SDS011;23769;52.478;13.448;2023-02-24T08:10:14;9.50;;;2.13;;
37945;SDS011;23769;52.478;13.448;2023-02-24T08:12:50;7.13;;;1.80;;
37945;SDS011;23769;52.478;13.448;2023-02-24T08:15:20;9.15;;;2.20;;
37945;SDS011;23769;52.478;13.448;2023-02-24T08:17:51;12.65;;;1.98;;
37945;SDS011;23769;52.478;13.448;2023-02-24T08:20:18;11.98;;;2.58;;
37945;SDS011;23769;52.478;13.448;2023-02-24T08:22:54;12.23;;;2.20;;
37945;SDS011;23769;52.478;13.448;2023-02-24T08:25:23;13.43;;;3.20;;
37945;SDS011;23769;52.478;13.448;2023-02-24T08:27:59;9.88;;;2.20;;
37945;SDS011;23769;52.478;13.448;2023-02-24T08:30:30;6.38;;;2.15;;
37945;SDS011;23769;52.478;13.448;2023-02-24T08:33:04;11.80;;;2.63;;
37945;SDS011;23769;52.478;13.448;2023-02-24T08:35:32;8.35;;;1.85;;
37945;SDS011;23769;52.478;13.448;2023-02-24T08:38:01;10.23;;;2.33;;
37945;SDS011;23769;52.478;13.448;2023-02-24T08:40:30;4.88;;;1.52;;
37945;SDS011;23769;52.478;13.448;2023-02-24T08:43:14;11.27;;;2.70;;
37945;SDS011;23769;52.478;13.448;2023-02-24T08:45:45;7.47;;;1.20;;
37945;SDS011;23769;52.478;13.448;2023-02-24T08:48:16;6.60;;;2.25;;
37945;SDS011;23769;52.478;13.448;2023-02-24T08:50:51;6.82;;;2.13;;
37945;SDS011;23769;52.478;13.448;2023-02-24T08:53:18;8.95;;;2.70;;
37945;SDS011;23769;52.478;13.448;2023-02-24T08:55:46;10.00;;;2.33;;
37945;SDS011;23769;52.478;13.448;2023-02-24T08:58:16;9.23;;;2.38;;
37945;SDS011;23769;52.478;13.448;2023-02-24T09:00:43;12.15;;;2.40;;
37945;SDS011;23769;52.478;13.448;2023-02-24T09:03:16;8.90;;;2.60;;
37945;SDS011;23769;52.478;13.448;2023-02-24T09:05:57;6.28;;;2.65;;
37945;SDS011;23769;52.478;13.448;2023-02-24T09:08:24;8.00;;;2.75;;
37945;SDS011;23769;52.478;13.448;2023-02-24T09:10:57;10.30;;;3.38;;
37945;SDS011;23769;52.478;13.448;2023-02-24T09:13:24;13.43;;;3.25;;
37945;SDS011;23769;52.478;13.448;2023-02-24T09:15:58;11.00;;;2.55;;
37945;SDS011;23769;52.478;13.448;2023-02-24T09:18:27;9.63;;;2.75;;
37945;SDS011;23769;52.478;13.448;2023-02-24T09:21:09;8.82;;;2.83;;
37945;SDS011;23769;52.478;13.448;2023-02-24T09:23:56;7.85;;;2.42;;
37945;SDS011;23769;52.478;13.448;2023-02-24T09:26:24;8.02;;;2.63;;
37945;SDS011;23769;52.478;13.448;2023-02-24T09:28:56;7.05;;;2.17;;
37945;SDS011;23769;52.478;13.448;2023-02-24T09:31:23;8.32;;;2.28;;
37945;SDS011;23769;52.478;13.448;2023-02-24T09:34:06;6.07;;;1.85;;
37945;SDS011;23769;52.478;13.448;2023-02-24T09:36:34;7.78;;;2.30;;
37945;SDS011;23769;52.478;13.448;2023-02-24T09:39:09;8.68;;;2.25;;
37945;SDS011;23769;52.478;13.448;2023-02-24T09:41:39;6.53;;;2.72;;
37945;SDS011;23769;52.478;13.448;2023-02-24T09:44:26;13.35;;;3.22;;
37945;SDS011;23769;52.478;13.448;2023-02-24T09:46:58;7.78;;;1.92;;
37945;SDS011;23769;52.478;13.448;2023-02-24T09:49:38;13.50;;;3.40;;
37945;SDS011;23769;52.478;13.448;2023-02-24T09:52:10;10.88;;;2.15;;
37945;SDS011;23769;52.478;13.448;2023-02-24T09:54:41;6.60;;;2.40;;
37945;SDS011;23769;52.478;13.448;2023-02-24T09:57:29;6.38;;;1.92;;
37945;SDS011;23769;52.478;13.448;2023-02-24T10:00:03;9.38;;;2.20;;
37945;SDS011;23769;52.478;13.448;2023-02-24T10:02:48;7.03;;;1.90;;
37945;SDS011;23769;52.478;13.448;2023-02-24T10:05:25;6.35;;;1.65;;
37945;SDS011;23769;52.478;13.448;2023-02-24T10:07:59;7.45;;;1.80;;
37945;SDS011;23769;52.478;13.448;2023-02-24T10:10:27;7.20;;;1.70;;
37945;SDS011;23769;52.478;13.448;2023-02-24T10:15:27;8.23;;;2.00;;
37945;SDS011;23769;52.478;13.448;2023-02-24T10:18:18;5.03;;;1.80;;
37945;SDS011;23769;52.478;13.448;2023-02-24T10:20:52;4.45;;;1.73;;
37945;SDS011;23769;52.478;13.448;2023-02-24T10:23:24;7.50;;;1.75;;
37945;SDS011;23769;52.478;13.448;2023-02-24T10:25:58;9.20;;;2.28;;
37945;SDS011;23769;52.478;13.448;2023-02-24T10:28:28;10.43;;;3.17;;
37945;SDS011;23769;52.478;13.448;2023-02-24T10:31:02;6.90;;;2.10;;
37945;SDS011;23769;52.478;13.448;2023-02-24T10:33:35;8.07;;;2.45;;
37945;SDS011;23769;52.478;13.448;2023-02-24T10:36:11;9.10;;;1.55;;
37945;SDS011;23769;52.478;13.448;2023-02-24T10:38:41;5.00;;;1.90;;
37945;SDS011;23769;52.478;13.448;2023-02-24T10:41:10;6.55;;;1.70;;
37945;SDS011;23769;52.478;13.448;2023-02-24T10:43:38;8.75;;;2.63;;
37945;SDS011;23769;52.478;13.448;2023-02-24T10:46:20;8.75;;;2.33;;
37945;SDS011;23769;52.478;13.448;2023-02-24T10:48:50;7.93;;;1.75;;
37945;SDS011;23769;52.478;13.448;2023-02-24T10:51:27;6.57;;;2.13;;
37945;SDS011;23769;52.478;13.448;2023-02-24T10:54:03;3.88;;;1.40;;
37945;SDS011;23769;52.478;13.448;2023-02-24T10:56:46;5.57;;;2.25;;
37945;SDS011;23769;52.478;13.448;2023-02-24T10:59:19;7.65;;;2.03;;
37945;SDS011;23769;52.478;13.448;2023-02-24T11:02:14;6.30;;;1.88;;
37945;SDS011;23769;52.478;13.448;2023-02-24T11:04:51;9.80;;;2.17;;
37945;SDS011;23769;52.478;13.448;2023-02-24T11:07:42;6.43;;;1.80;;
37945;SDS011;23769;52.478;13.448;2023-02-24T11:10:18;6.50;;;2.70;;
37945;SDS011;23769;52.478;13.448;2023-02-24T11:12:51;8.25;;;2.00;;
37945;SDS011;23769;52.478;13.448;2023-02-24T11:15:36;6.35;;;2.00;;
37945;SDS011;23769;52.478;13.448;2023-02-24T11:18:22;6.45;;;1.83;;
37945;SDS011;23769;52.478;13.448;2023-02-24T11:20:50;7.05;;;1.73;;
37945;SDS011;23769;52.478;13.448;2023-02-24T11:23:21;6.03;;;1.65;;
37945;SDS011;23769;52.478;13.448;2023-02-24T11:25:50;6.15;;;1.90;;
37945;SDS011;23769;52.478;13.448;2023-02-24T11:28:26;7.00;;;2.35;;
37945;SDS011;23769;52.478;13.448;2023-02-24T11:30:57;7.22;;;2.30;;
37945;SDS011;23769;52.478;13.448;2023-02-24T11:33:31;8.65;;;2.22;;
37945;SDS011;23769;52.478;13.448;2023-02-24T11:36:05;9.25;;;2.83;;
37945;SDS011;23769;52.478;13.448;2023-02-24T11:41:06;8.52;;;1.98;;
37945;SDS011;23769;52.478;13.448;2023-02-24T11:43:36;7.05;;;1.73;;
37945;SDS011;23769;52.478;13.448;2023-02-24T11:46:08;5.80;;;1.58;;
37945;SDS011;23769;52.478;13.448;2023-02-24T11:48:36;8.35;;;2.08;;
37945;SDS011;23769;52.478;13.448;2023-02-24T11:51:05;8.48;;;2.13;;
37945;SDS011;23769;52.478;13.448;2023-02-24T11:53:33;9.27;;;2.75;;
37945;SDS011;23769;52.478;13.448;2023-02-24T11:56:01;6.85;;;1.75;;
37945;SDS011;23769;52.478;13.448;2023-02-24T11:58:33;7.18;;;1.85;;
37945;SDS011;23769;52.478;13.448;2023-02-24T12:01:05;6.87;;;1.83;;
37945;SDS011;23769;52.478;13.448;2023-02-24T12:03:35;10.13;;;2.63;;
37945;SDS011;23769;52.478;13.448;2023-02-24T12:06:07;11.27;;;3.30;;
37945;SDS011;23769;52.478;13.448;2023-02-24T12:11:04;7.40;;;2.10;;
37945;SDS011;23769;52.478;13.448;2023-02-24T12:13:37;9.90;;;2.70;;
37945;SDS011;23769;52.478;13.448;2023-02-24T12:16:06;9.68;;;2.97;;
37945;SDS011;23769;52.478;13.448;2023-02-24T12:18:37;6.53;;;2.17;;
37945;SDS011;23769;52.478;13.448;2023-02-24T12:21:06;5.38;;;1.85;;
37945;SDS011;23769;52.478;13.448;2023-02-24T12:23:34;7.50;;;2.47;;
37945;SDS011;23769;52.478;13.448;2023-02-24T12:26:07;7.68;;;2.00;;
37945;SDS011;23769;52.478;13.448;2023-02-24T12:28:44;11.23;;;2.40;;
37945;SDS011;23769;52.478;13.448;2023-02-24T12:31:17;7.20;;;1.67;;
37945;SDS011;23769;52.478;13.448;2023-02-24T12:33:51;5.75;;;1.80;;
37945;SDS011;23769;52.478;13.448;2023-02-24T12:36:31;7.07;;;1.65;;
37945;SDS011;23769;52.478;13.448;2023-02-24T12:39:06;7.40;;;2.20;;
37945;SDS011;23769;52.478;13.448;2023-02-24T12:41:39;6.70;;;1.70;;
37945;SDS011;23769;52.478;13.448;2023-02-24T12:46:38;6.65;;;1.73;;
37945;SDS011;23769;52.478;13.448;2023-02-24T12:49:13;8.02;;;2.20;;
37945;SDS011;23769;52.478;13.448;2023-02-24T12:51:46;6.97;;;1.50;;
37945;SDS011;23769;52.478;13.448;2023-02-24T12:54:19;7.90;;;1.92;;
37945;SDS011;23769;52.478;13.448;2023-02-24T12:56:50;4.90;;;1.60;;
37945;SDS011;23769;52.478;13.448;2023-02-24T12:59:20;5.57;;;1.60;;
37945;SDS011;23769;52.478;13.448;2023-02-24T13:01:50;6.35;;;2.20;;
37945;SDS011;23769;52.478;13.448;2023-02-24T13:04:24;7.00;;;2.38;;
37945;SDS011;23769;52.478;13.448;2023-02-24T13:06:59;5.03;;;1.60;;
37945;SDS011;23769;52.478;13.448;2023-02-24T13:09:33;7.15;;;1.85;;
37945;SDS011;23769;52.478;13.448;2023-02-24T13:12:05;4.78;;;1.80;;
37945;SDS011;23769;52.478;13.448;2023-02-24T13:14:38;8.35;;;2.00;;
37945;SDS011;23769;52.478;13.448;2023-02-24T13:17:18;6.45;;;2.53;;
37945;SDS011;23769;52.478;13.448;2023-02-24T13:19:45;6.60;;;2.22;;
37945;SDS011;23769;52.478;13.448;2023-02-24T13:22:18;8.73;;;2.30;;
37945;SDS011;23769;52.478;13.448;2023-02-24T13:24:54;9.27;;;3.25;;
37945;SDS011;23769;52.478;13.448;2023-02-24T13:27:22;5.88;;;2.08;;
37945;SDS011;23769;52.478;13.448;2023-02-24T13:29:51;8.85;;;2.55;;
37945;SDS011;23769;52.478;13.448;2023-02-24T13:32:30;8.55;;;2.65;;
37945;SDS011;23769;52.478;13.448;2023-02-24T13:34:58;4.30;;;1.88;;
37945;SDS011;23769;52.478;13.448;2023-02-24T13:37:28;6.82;;;2.50;;
37945;SDS011;23769;52.478;13.448;2023-02-24T13:39:55;8.77;;;2.97;;
37945;SDS011;23769;52.478;13.448;2023-02-24T13:42:23;6.70;;;2.42;;
37945;SDS011;23769;52.478;13.448;2023-02-24T13:44:51;5.28;;;2.15;;
37945;SDS011;23769;52.478;13.448;2023-02-24T13:47:24;5.20;;;2.63;;
37945;SDS011;23769;52.478;13.448;2023-02-24T13:50:00;7.32;;;2.15;;
37945;SDS011;23769;52.478;13.448;2023-02-24T13:52:34;5.95;;;2.17;;
37945;SDS011;23769;52.478;13.448;2023-02-24T13:55:10;7.78;;;2.03;;
37945;SDS011;23769;52.478;13.448;2023-02-24T13:57:48;6.22;;;2.42;;
37945;SDS011;23769;52.478;13.448;2023-02-24T14:00:25;4.70;;;2.50;;
37945;SDS011;23769;52.478;13.448;2023-02-24T14:02:54;10.02;;;2.90;;
37945;SDS011;23769;52.478;13.448;2023-02-24T14:05:24;5.95;;;2.00;;
37945;SDS011;23769;52.478;13.448;2023-02-24T14:07:52;3.92;;;1.80;;
37945;SDS011;23769;52.478;13.448;2023-02-24T14:10:21;3.47;;;1.63;;
37945;SDS011;23769;52.478;13.448;2023-02-24T14:13:04;4.32;;;1.88;;
37945;SDS011;23769;52.478;13.448;2023-02-24T14:15:32;5.57;;;2.15;;
37945;SDS011;23769;52.478;13.448;2023-02-24T14:18:00;3.00;;;1.50;;
37945;SDS011;23769;52.478;13.448;2023-02-24T14:20:29;7.72;;;1.88;;
37945;SDS011;23769;52.478;13.448;2023-02-24T14:22:57;7.03;;;2.30;;
37945;SDS011;23769;52.478;13.448;2023-02-24T14:25:25;8.93;;;4.63;;
37945;SDS011;23769;52.478;13.448;2023-02-24T14:27:53;4.80;;;2.40;;
37945;SDS011;23769;52.478;13.448;2023-02-24T14:30:22;12.77;;;5.85;;
37945;SDS011;23769;52.478;13.448;2023-02-24T14:32:50;10.10;;;4.55;;
37945;SDS011;23769;52.478;13.448;2023-02-24T14:35:18;8.45;;;3.90;;
37945;SDS011;23769;52.478;13.448;2023-02-24T14:37:47;8.85;;;4.55;;
37945;SDS011;23769;52.478;13.448;2023-02-24T14:40:14;6.13;;;2.88;;
37945;SDS011;23769;52.478;13.448;2023-02-24T14:42:46;7.68;;;2.78;;
37945;SDS011;23769;52.478;13.448;2023-02-24T14:45:17;7.55;;;3.22;;
37945;SDS011;23769;52.478;13.448;2023-02-24T14:47:45;6.20;;;2.10;;
37945;SDS011;23769;52.478;13.448;2023-02-24T14:50:16;6.28;;;1.80;;
37945;SDS011;23769;52.478;13.448;2023-02-24T14:52:44;6.13;;;2.15;;
37945;SDS011;23769;52.478;13.448;2023-02-24T14:55:17;5.07;;;2.00;;
37945;SDS011;23769;52.478;13.448;2023-02-24T14:57:47;6.75;;;3.30;;
37945;SDS011;23769;52.478;13.448;2023-02-24T15:00:16;6.18;;;2.10;;
37945;SDS011;23769;52.478;13.448;2023-02-24T15:02:49;6.45;;;1.77;;
37945;SDS011;23769;52.478;13.448;2023-02-24T15:05:18;4.97;;;3.25;;
37945;SDS011;23769;52.478;13.448;2023-02-24T15:07:45;3.38;;;2.08;;
37945;SDS011;23769;52.478;13.448;2023-02-24T15:10:18;4.82;;;2.15;;
37945;SDS011;23769;52.478;13.448;2023-02-24T15:12:49;5.18;;;1.75;;